createdAt,value
2018-12-11T00:03:03.390Z,54.3
2018-12-11T00:08:01.082Z,54.4
2018-12-11T00:12:58.469Z,54.5
2018-12-11T00:17:55.858Z,54.6
2018-12-11T00:22:53.406Z,54.4
2018-12-11T00:27:50.783Z,54.2
2018-12-11T00:32:48.329Z,54.1
2018-12-11T00:37:45.698Z,54.4
2018-12-11T00:42:43.351Z,54.3
2018-12-11T00:47:40.915Z,54.9
2018-12-11T00:52:38.406Z,54.4
2018-12-11T00:57:35.888Z,54.6
2018-12-11T01:02:33.725Z,54.6
2018-12-11T01:07:31.231Z,54.8
2018-12-11T01:12:28.859Z,54.4
2018-12-11T01:17:26.402Z,54.4
2018-12-11T01:22:23.832Z,54.6
2018-12-11T01:27:21.304Z,54.7
2018-12-11T01:32:18.675Z,54.3
2018-12-11T01:37:16.026Z,54.4
2018-12-11T01:42:13.425Z,54.2
2018-12-11T01:47:10.987Z,54
2018-12-11T01:52:08.464Z,54.1
2018-12-11T01:57:06.223Z,54
2018-12-11T02:02:03.660Z,54.4
2018-12-11T02:07:00.936Z,54.3
2018-12-11T02:11:58.427Z,54.1
2018-12-11T02:16:55.964Z,54.4
2018-12-11T02:21:53.418Z,54.5
2018-12-11T02:26:50.644Z,54.3
2018-12-11T02:31:48.400Z,54.5
2018-12-11T02:36:45.850Z,54.6
2018-12-11T02:41:43.123Z,54
2018-12-11T02:46:40.713Z,54
2018-12-11T02:51:38.163Z,53.9
2018-12-11T02:56:36.024Z,53.7
2018-12-11T03:01:33.607Z,53.8
2018-12-11T03:06:31.105Z,54.1
2018-12-11T03:11:28.415Z,53.9
2018-12-11T03:16:25.662Z,54
2018-12-11T03:21:22.695Z,53.8
2018-12-11T03:26:20.116Z,53.8
2018-12-11T03:31:17.388Z,54
2018-12-11T03:36:14.848Z,54.1
2018-12-11T03:41:12.439Z,54.4
2018-12-11T03:46:09.831Z,54.4
2018-12-11T03:51:07.220Z,54.6
2018-12-11T03:56:05.006Z,54.9
2018-12-11T04:01:02.439Z,55
2018-12-11T04:05:59.821Z,55.4
2018-12-11T04:10:56.904Z,55.1
2018-12-11T04:15:54.460Z,55.2
2018-12-11T04:20:51.778Z,55.1
2018-12-11T04:25:49.465Z,55
2018-12-11T04:30:46.884Z,55.2
2018-12-11T04:35:44.831Z,55.2
2018-12-11T04:40:41.830Z,55.1
2018-12-11T04:45:39.464Z,54.9
2018-12-11T04:50:36.840Z,54.7
2018-12-11T04:55:34.124Z,54.8
2018-12-11T05:00:31.869Z,54.6
2018-12-11T05:05:29.327Z,54.9
2018-12-11T05:10:26.559Z,54.5
2018-12-11T05:15:23.871Z,54.5
2018-12-11T05:20:21.304Z,54.3
2018-12-11T05:25:18.984Z,54.3
2018-12-11T05:30:16.376Z,54.3
2018-12-11T05:35:13.897Z,54.4
2018-12-11T05:40:11.159Z,54.7
2018-12-11T05:45:08.541Z,54.4
2018-12-11T05:50:05.819Z,54.4
2018-12-11T05:55:03.200Z,54.7
2018-12-11T06:00:00.558Z,55.1
2018-12-11T06:04:58.071Z,55.1
2018-12-11T06:09:55.698Z,55.4
2018-12-11T06:14:53.075Z,54.8
2018-12-11T06:19:50.033Z,55.2
2018-12-11T06:24:47.447Z,55.7
2018-12-11T06:29:45.043Z,55.8
2018-12-11T06:34:42.139Z,56.1
2018-12-11T06:39:39.515Z,56.5
2018-12-11T06:44:36.880Z,56.6
2018-12-11T06:49:34.219Z,57
2018-12-11T06:54:32.084Z,57.1
2018-12-11T06:59:28.272Z,56.7
2018-12-11T07:04:25.783Z,56.4
2018-12-11T07:09:22.871Z,56.3
2018-12-11T07:14:20.349Z,56.6
2018-12-11T07:19:17.688Z,56.8
2018-12-11T07:24:15.085Z,56.4
2018-12-11T07:29:12.383Z,56.2
2018-12-11T07:34:10.181Z,56.3
2018-12-11T07:39:07.699Z,56.1
2018-12-11T07:44:05.027Z,56
2018-12-11T07:49:01.994Z,55.9
2018-12-11T07:53:59.830Z,55.1
2018-12-11T08:03:54.473Z,53.1
2018-12-11T08:08:51.644Z,52.6
2018-12-11T08:13:49.007Z,52.6
2018-12-11T08:18:45.834Z,53
2018-12-11T08:23:43.457Z,53.5
2018-12-11T08:28:40.239Z,52.7
2018-12-11T08:33:37.569Z,52.6
2018-12-11T08:38:35.430Z,52.1
2018-12-11T08:43:32.780Z,51.7
2018-12-11T08:48:29.520Z,51.2
2018-12-11T08:53:27.266Z,51.9
2018-12-11T08:58:24.669Z,51.3
2018-12-11T09:03:22.294Z,51.3
2018-12-11T09:08:19.603Z,50.4
2018-12-11T09:13:16.994Z,50.5
2018-12-11T09:18:14.456Z,50.1
2018-12-11T09:23:12.099Z,49.8
2018-12-11T09:28:11.070Z,49.7
2018-12-11T09:33:06.771Z,48.8
2018-12-11T09:38:04.291Z,47.7
2018-12-11T09:43:01.632Z,48.1
2018-12-11T09:47:59.215Z,47.4
2018-12-11T09:52:56.876Z,47.8
2018-12-11T09:57:54.367Z,48.3
2018-12-11T10:02:52.306Z,48.6
2018-12-11T10:07:49.563Z,47.8
2018-12-11T10:12:47.055Z,47.5
2018-12-11T10:17:43.873Z,47.5
2018-12-11T10:22:41.132Z,46.4
2018-12-11T10:27:38.859Z,45.7
2018-12-11T10:32:36.311Z,45.4
2018-12-11T10:37:33.528Z,43.7
2018-12-11T10:42:30.980Z,43.3
2018-12-11T10:47:28.854Z,43.1
2018-12-11T10:52:26.437Z,42.5
2018-12-11T10:57:23.962Z,43.4
2018-12-11T11:02:22.220Z,44.3
2018-12-11T11:07:19.616Z,44.1
2018-12-11T11:12:17.079Z,43
2018-12-11T11:17:14.528Z,42.6
2018-12-11T11:22:11.733Z,42.9
2018-12-11T11:27:09.231Z,43
2018-12-11T11:32:06.800Z,42.5
2018-12-11T11:37:04.143Z,42.2
2018-12-11T11:42:01.420Z,42.7
2018-12-11T11:46:59.025Z,40.7
2018-12-11T11:51:56.590Z,41
2018-12-11T11:56:54.195Z,41.6
2018-12-11T12:01:52.162Z,41.6
2018-12-11T12:06:49.718Z,41
2018-12-11T12:11:47.347Z,40.1
2018-12-11T12:16:44.481Z,40.5
2018-12-11T12:21:41.558Z,40.2
2018-12-11T12:26:38.964Z,41.5
2018-12-11T12:31:36.291Z,42.5
2018-12-11T12:36:33.652Z,42.9
2018-12-11T12:41:30.821Z,42.6
2018-12-11T12:46:28.286Z,42.8
2018-12-11T12:51:26.110Z,42.8
2018-12-11T12:56:23.630Z,42.7
2018-12-11T13:01:21.165Z,43.4
2018-12-11T13:06:18.146Z,43.9
2018-12-11T13:11:15.340Z,44.8
2018-12-11T13:16:12.936Z,45.2
2018-12-11T13:21:10.002Z,45.7
2018-12-11T13:26:07.427Z,45
2018-12-11T13:31:04.712Z,45.4
2018-12-11T13:36:01.846Z,46.1
2018-12-11T13:40:59.226Z,46.5
2018-12-11T13:45:57.067Z,46.5
2018-12-11T13:50:54.462Z,46.5
2018-12-11T13:55:51.942Z,47.1
2018-12-11T14:00:49.645Z,46.8
2018-12-11T14:05:47.201Z,47.1
2018-12-11T14:10:44.444Z,46.7
2018-12-11T14:15:41.653Z,46.9
2018-12-11T14:20:39.264Z,46.8
2018-12-11T14:25:36.738Z,46.8
2018-12-11T14:30:34.243Z,46.4
2018-12-11T14:35:31.476Z,46.1
2018-12-11T14:40:28.881Z,46.3
2018-12-11T14:45:26.183Z,46
2018-12-11T14:50:23.666Z,46.2
2018-12-11T14:55:21.160Z,47
2018-12-11T15:00:18.631Z,47.2
2018-12-11T15:05:15.809Z,47.4
2018-12-11T15:10:13.787Z,48
2018-12-11T15:15:11.572Z,48.2
2018-12-11T15:20:09.324Z,47.9
2018-12-11T15:25:06.722Z,47.4
2018-12-11T15:30:03.726Z,46.9
2018-12-11T15:35:00.635Z,47.1
2018-12-11T15:39:57.953Z,47
2018-12-11T15:44:55.424Z,47.1
2018-12-11T15:49:53.021Z,47.3
2018-12-11T15:54:50.733Z,47.6
2018-12-11T15:59:48.070Z,47.8
2018-12-11T16:04:45.481Z,47.8
2018-12-11T16:09:42.971Z,47.8
2018-12-11T16:14:40.217Z,48
2018-12-11T16:19:37.607Z,48.1
2018-12-11T16:24:34.656Z,48.3
2018-12-11T16:29:32.049Z,48.2
2018-12-11T16:34:29.568Z,48.3
2018-12-11T16:39:27.141Z,48.5
2018-12-11T16:44:24.751Z,48.6
2018-12-11T16:49:22.010Z,48.9
2018-12-11T16:54:19.705Z,48.8
2018-12-11T16:59:17.407Z,48.5
2018-12-11T17:04:14.763Z,48.8
2018-12-11T17:09:12.411Z,48.6
2018-12-11T17:14:09.853Z,48.5
2018-12-11T17:19:07.568Z,48.6
2018-12-11T17:24:05.022Z,48.6
2018-12-11T17:29:03.080Z,48.4
2018-12-11T17:34:00.499Z,49
2018-12-11T17:38:57.628Z,49
2018-12-11T17:43:55.093Z,49.1
2018-12-11T17:48:52.445Z,49.2
2018-12-11T17:53:49.890Z,49.6
2018-12-11T17:58:47.569Z,49.5
2018-12-11T18:03:45.198Z,49.4
2018-12-11T18:08:42.456Z,49.7
2018-12-11T18:13:39.922Z,49.8
2018-12-11T18:18:37.363Z,49.9
2018-12-11T18:23:34.916Z,50.2
2018-12-11T18:28:32.956Z,50.1
2018-12-11T18:33:30.426Z,50.2
2018-12-11T18:38:28.004Z,50.4
2018-12-11T18:43:25.423Z,50.4
2018-12-11T18:48:23.211Z,50.7
2018-12-11T18:53:20.949Z,50.9
2018-12-11T18:58:18.516Z,50.8
2018-12-11T19:03:15.500Z,50.2
2018-12-11T19:08:12.371Z,50.4
2018-12-11T19:13:09.755Z,50.7
2018-12-11T19:18:07.186Z,50.3
2018-12-11T19:23:04.814Z,50.3
2018-12-11T19:28:02.024Z,50.5
2018-12-11T19:32:59.456Z,50.4
2018-12-11T19:37:56.792Z,50.5
2018-12-11T19:42:54.357Z,50
2018-12-11T19:47:52.647Z,50.2
2018-12-11T19:52:49.418Z,50.2
2018-12-11T19:57:46.795Z,50.2
2018-12-11T20:02:44.178Z,50.4
2018-12-11T20:07:41.452Z,50.4
2018-12-11T20:12:38.934Z,50.5
2018-12-11T20:17:36.348Z,50.6
2018-12-11T20:22:33.835Z,50.9
2018-12-11T20:27:31.314Z,50.5
2018-12-11T20:32:28.516Z,50.6
2018-12-11T20:37:26.019Z,50.7
2018-12-11T20:42:23.360Z,50.7
2018-12-11T20:47:20.877Z,50.9
2018-12-11T20:52:18.144Z,51.2
2018-12-11T20:57:15.687Z,51
2018-12-11T21:02:13.094Z,51.6
2018-12-11T21:07:10.719Z,51.9
2018-12-11T21:12:08.128Z,52
2018-12-11T21:17:05.514Z,52.7
2018-12-11T21:22:03.217Z,52.7
2018-12-11T21:27:00.718Z,53.5
2018-12-11T21:31:58.089Z,53.1
2018-12-11T21:36:55.669Z,53
2018-12-11T21:41:52.758Z,53.1
2018-12-11T21:46:50.083Z,53
2018-12-11T21:51:47.873Z,52.8
2018-12-11T21:56:45.503Z,53
2018-12-11T22:01:43.223Z,52.6
2018-12-11T22:06:40.710Z,52.3
2018-12-11T22:11:38.208Z,52.1
2018-12-11T22:16:35.741Z,52.1
2018-12-11T22:21:33.301Z,52.2
2018-12-11T22:26:30.735Z,52.2
2018-12-11T22:31:28.196Z,52.1
2018-12-11T22:36:25.611Z,52.1
2018-12-11T22:41:23.093Z,52.4
2018-12-11T22:46:20.405Z,52.7
2018-12-11T22:51:17.815Z,52.8
2018-12-11T22:56:15.297Z,53.1
2018-12-11T23:01:12.857Z,52.9
2018-12-11T23:06:10.325Z,53.1
2018-12-11T23:11:07.953Z,52.8
2018-12-11T23:16:05.630Z,52.6
2018-12-11T23:21:03.301Z,52.8
2018-12-11T23:26:01.380Z,52.4
2018-12-11T23:30:58.783Z,52.1
2018-12-11T23:35:56.508Z,52.1
2018-12-11T23:40:54.153Z,52.2
2018-12-11T23:45:51.865Z,51.9
2018-12-11T23:50:49.503Z,51.9
2018-12-11T23:55:47.452Z,52.1
